sensor_id;sensor_type;location;lat;lon;timestamp;temperature;humidity
31133;DHT22;17779;50.942;4.026;2022-07-18T00:00:58;20.20;99.90
31133;DHT22;17779;50.942;4.026;2022-07-18T00:03:24;20.20;99.90
31133;DHT22;17779;50.942;4.026;2022-07-18T00:05:50;20.30;99.90
31133;DHT22;17779;50.942;4.026;2022-07-18T00:08:16;20.40;99.90
31133;DHT22;17779;50.942;4.026;2022-07-18T00:10:42;20.60;99.90
31133;DHT22;17779;50.942;4.026;2022-07-18T00:13:07;20.50;99.90
31133;DHT22;17779;50.942;4.026;2022-07-18T00:15:35;20.30;99.90
31133;DHT22;17779;50.942;4.026;2022-07-18T00:18:01;20.40;99.90
31133;DHT22;17779;50.942;4.026;2022-07-18T00:20:27;20.20;99.90
31133;DHT22;17779;50.942;4.026;2022-07-18T00:22:53;20.10;99.90
31133;DHT22;17779;50.942;4.026;2022-07-18T00:25:18;19.90;99.90
31133;DHT22;17779;50.942;4.026;2022-07-18T00:27:44;19.90;99.90
31133;DHT22;17779;50.942;4.026;2022-07-18T00:30:10;19.90;99.90
31133;DHT22;17779;50.942;4.026;2022-07-18T00:32:36;20.00;99.90
31133;DHT22;17779;50.942;4.026;2022-07-18T00:35:02;20.00;99.90
31133;DHT22;17779;50.942;4.026;2022-07-18T00:37:27;20.20;99.90
31133;DHT22;17779;50.942;4.026;2022-07-18T00:39:53;20.30;99.90
31133;DHT22;17779;50.942;4.026;2022-07-18T00:42:20;20.30;99.90
31133;DHT22;17779;50.942;4.026;2022-07-18T00:44:45;20.30;99.90
31133;DHT22;17779;50.942;4.026;2022-07-18T00:47:11;20.10;99.90
31133;DHT22;17779;50.942;4.026;2022-07-18T00:49:37;20.20;99.90
31133;DHT22;17779;50.942;4.026;2022-07-18T00:52:03;20.40;99.90
31133;DHT22;17779;50.942;4.026;2022-07-18T00:54:29;20.20;99.90
31133;DHT22;17779;50.942;4.026;2022-07-18T00:56:56;20.10;99.90
31133;DHT22;17779;50.942;4.026;2022-07-18T00:59:22;19.90;99.90
31133;DHT22;17779;50.942;4.026;2022-07-18T01:02:08;19.70;99.90
31133;DHT22;17779;50.942;4.026;2022-07-18T01:04:34;19.90;99.90
31133;DHT22;17779;50.942;4.026;2022-07-18T01:06:59;20.00;99.90
31133;DHT22;17779;50.942;4.026;2022-07-18T01:09:25;19.80;99.90
31133;DHT22;17779;50.942;4.026;2022-07-18T01:11:51;19.50;99.90
31133;DHT22;17779;50.942;4.026;2022-07-18T01:14:17;19.30;99.90
31133;DHT22;17779;50.942;4.026;2022-07-18T01:16:43;19.50;99.90
31133;DHT22;17779;50.942;4.026;2022-07-18T01:19:09;19.70;99.90
31133;DHT22;17779;50.942;4.026;2022-07-18T01:21:35;19.70;99.90
31133;DHT22;17779;50.942;4.026;2022-07-18T01:24:02;19.70;99.90
31133;DHT22;17779;50.942;4.026;2022-07-18T01:26:27;19.70;99.90
31133;DHT22;17779;50.942;4.026;2022-07-18T01:28:53;19.70;99.90
31133;DHT22;17779;50.942;4.026;2022-07-18T01:31:19;19.60;99.90
31133;DHT22;17779;50.942;4.026;2022-07-18T01:33:45;19.70;99.90
31133;DHT22;17779;50.942;4.026;2022-07-18T01:36:10;19.70;99.90
31133;DHT22;17779;50.942;4.026;2022-07-18T01:38:36;19.60;99.90
31133;DHT22;17779;50.942;4.026;2022-07-18T01:41:02;19.40;99.90
31133;DHT22;17779;50.942;4.026;2022-07-18T01:43:28;19.30;99.90
31133;DHT22;17779;50.942;4.026;2022-07-18T01:45:54;19.30;99.90
31133;DHT22;17779;50.942;4.026;2022-07-18T01:48:20;19.10;99.90
31133;DHT22;17779;50.942;4.026;2022-07-18T01:50:48;18.70;99.90
31133;DHT22;17779;50.942;4.026;2022-07-18T01:53:14;18.40;99.90
31133;DHT22;17779;50.942;4.026;2022-07-18T01:55:40;18.40;99.90
31133;DHT22;17779;50.942;4.026;2022-07-18T01:58:05;18.30;99.90
31133;DHT22;17779;50.942;4.026;2022-07-18T02:00:31;18.50;99.90
31133;DHT22;17779;50.942;4.026;2022-07-18T02:02:57;18.50;99.90
31133;DHT22;17779;50.942;4.026;2022-07-18T02:05:23;18.60;99.90
31133;DHT22;17779;50.942;4.026;2022-07-18T02:07:48;18.90;99.90
31133;DHT22;17779;50.942;4.026;2022-07-18T02:10:16;18.90;99.90
31133;DHT22;17779;50.942;4.026;2022-07-18T02:12:42;18.80;99.90
31133;DHT22;17779;50.942;4.026;2022-07-18T02:15:08;18.60;99.90
31133;DHT22;17779;50.942;4.026;2022-07-18T02:17:34;18.60;99.90
31133;DHT22;17779;50.942;4.026;2022-07-18T02:20:00;18.50;99.90
31133;DHT22;17779;50.942;4.026;2022-07-18T02:22:26;18.60;99.90
31133;DHT22;17779;50.942;4.026;2022-07-18T02:24:52;18.60;99.90
31133;DHT22;17779;50.942;4.026;2022-07-18T02:27:18;18.50;99.90
31133;DHT22;17779;50.942;4.026;2022-07-18T02:29:44;18.40;99.90
31133;DHT22;17779;50.942;4.026;2022-07-18T02:32:10;18.20;99.90
31133;DHT22;17779;50.942;4.026;2022-07-18T02:34:36;18.30;99.90
31133;DHT22;17779;50.942;4.026;2022-07-18T02:37:02;18.20;99.90
31133;DHT22;17779;50.942;4.026;2022-07-18T02:39:28;18.20;99.90
31133;DHT22;17779;50.942;4.026;2022-07-18T02:41:54;18.10;99.90
31133;DHT22;17779;50.942;4.026;2022-07-18T02:44:20;18.30;99.90
31133;DHT22;17779;50.942;4.026;2022-07-18T02:46:46;18.30;99.90
31133;DHT22;17779;50.942;4.026;2022-07-18T02:49:12;18.40;99.90
31133;DHT22;17779;50.942;4.026;2022-07-18T02:51:59;18.30;99.90
31133;DHT22;17779;50.942;4.026;2022-07-18T02:54:26;18.40;99.90
31133;DHT22;17779;50.942;4.026;2022-07-18T02:56:52;18.50;99.90
31133;DHT22;17779;50.942;4.026;2022-07-18T02:59:18;18.70;99.90
31133;DHT22;17779;50.942;4.026;2022-07-18T03:01:43;18.70;99.90
31133;DHT22;17779;50.942;4.026;2022-07-18T03:04:09;18.70;99.90
31133;DHT22;17779;50.942;4.026;2022-07-18T03:06:35;18.70;99.90
31133;DHT22;17779;50.942;4.026;2022-07-18T03:09:02;18.80;99.90
31133;DHT22;17779;50.942;4.026;2022-07-18T03:11:28;18.70;99.90
31133;DHT22;17779;50.942;4.026;2022-07-18T03:13:53;18.70;99.90
31133;DHT22;17779;50.942;4.026;2022-07-18T03:16:19;18.80;99.90
31133;DHT22;17779;50.942;4.026;2022-07-18T03:18:45;18.80;99.90
31133;DHT22;17779;50.942;4.026;2022-07-18T03:21:10;18.80;99.90
31133;DHT22;17779;50.942;4.026;2022-07-18T03:23:36;18.70;99.90
31133;DHT22;17779;50.942;4.026;2022-07-18T03:26:02;18.80;99.90
31133;DHT22;17779;50.942;4.026;2022-07-18T03:28:28;18.80;99.90
31133;DHT22;17779;50.942;4.026;2022-07-18T03:30:53;18.70;99.90
31133;DHT22;17779;50.942;4.026;2022-07-18T03:33:19;18.70;99.90
31133;DHT22;17779;50.942;4.026;2022-07-18T03:35:45;18.70;99.90
31133;DHT22;17779;50.942;4.026;2022-07-18T03:38:10;18.70;99.90
31133;DHT22;17779;50.942;4.026;2022-07-18T03:40:36;18.70;99.90
31133;DHT22;17779;50.942;4.026;2022-07-18T03:43:02;18.60;99.90
31133;DHT22;17779;50.942;4.026;2022-07-18T03:45:28;18.50;99.90
31133;DHT22;17779;50.942;4.026;2022-07-18T03:47:53;18.10;99.90
31133;DHT22;17779;50.942;4.026;2022-07-18T03:50:20;17.80;99.90
31133;DHT22;17779;50.942;4.026;2022-07-18T03:52:46;17.70;99.90
31133;DHT22;17779;50.942;4.026;2022-07-18T03:55:12;17.50;99.90
31133;DHT22;17779;50.942;4.026;2022-07-18T03:57:38;17.60;99.90
31133;DHT22;17779;50.942;4.026;2022-07-18T04:00:05;17.70;99.90
31133;DHT22;17779;50.942;4.026;2022-07-18T04:02:36;17.90;99.90
31133;DHT22;17779;50.942;4.026;2022-07-18T04:05:02;18.20;99.90
31133;DHT22;17779;50.942;4.026;2022-07-18T04:07:28;18.30;99.90
31133;DHT22;17779;50.942;4.026;2022-07-18T04:09:54;18.10;99.90
31133;DHT22;17779;50.942;4.026;2022-07-18T04:12:20;18.10;99.90
31133;DHT22;17779;50.942;4.026;2022-07-18T04:14:46;18.20;99.90
31133;DHT22;17779;50.942;4.026;2022-07-18T04:17:11;18.20;99.90
31133;DHT22;17779;50.942;4.026;2022-07-18T04:19:37;18.10;99.90
31133;DHT22;17779;50.942;4.026;2022-07-18T04:22:03;18.30;99.90
31133;DHT22;17779;50.942;4.026;2022-07-18T04:24:29;18.00;99.90
31133;DHT22;17779;50.942;4.026;2022-07-18T04:26:54;17.80;99.90
31133;DHT22;17779;50.942;4.026;2022-07-18T04:29:21;17.70;99.90
31133;DHT22;17779;50.942;4.026;2022-07-18T04:31:46;17.80;99.90
31133;DHT22;17779;50.942;4.026;2022-07-18T04:34:12;17.80;99.90
31133;DHT22;17779;50.942;4.026;2022-07-18T04:36:38;17.90;99.90
31133;DHT22;17779;50.942;4.026;2022-07-18T04:39:04;17.80;99.90
31133;DHT22;17779;50.942;4.026;2022-07-18T04:41:29;17.70;99.90
31133;DHT22;17779;50.942;4.026;2022-07-18T04:43:55;17.70;99.90
31133;DHT22;17779;50.942;4.026;2022-07-18T04:46:21;18.00;99.90
31133;DHT22;17779;50.942;4.026;2022-07-18T04:48:47;18.40;99.90
31133;DHT22;17779;50.942;4.026;2022-07-18T04:51:13;18.50;99.90
31133;DHT22;17779;50.942;4.026;2022-07-18T04:53:38;18.60;99.90
31133;DHT22;17779;50.942;4.026;2022-07-18T04:56:04;18.70;99.90
31133;DHT22;17779;50.942;4.026;2022-07-18T04:58:30;18.90;99.90
31133;DHT22;17779;50.942;4.026;2022-07-18T05:00:56;19.00;99.90
31133;DHT22;17779;50.942;4.026;2022-07-18T05:03:21;19.20;99.90
31133;DHT22;17779;50.942;4.026;2022-07-18T05:05:47;19.00;99.90
31133;DHT22;17779;50.942;4.026;2022-07-18T05:08:13;19.10;99.90
31133;DHT22;17779;50.942;4.026;2022-07-18T05:10:39;19.20;99.90
31133;DHT22;17779;50.942;4.026;2022-07-18T05:13:05;19.30;99.90
31133;DHT22;17779;50.942;4.026;2022-07-18T05:15:31;19.20;99.90
31133;DHT22;17779;50.942;4.026;2022-07-18T05:17:56;19.30;99.90
31133;DHT22;17779;50.942;4.026;2022-07-18T05:20:23;19.50;99.90
31133;DHT22;17779;50.942;4.026;2022-07-18T05:22:49;19.20;99.90
31133;DHT22;17779;50.942;4.026;2022-07-18T05:25:17;19.10;99.90
31133;DHT22;17779;50.942;4.026;2022-07-18T05:27:42;18.90;99.90
31133;DHT22;17779;50.942;4.026;2022-07-18T05:30:10;19.20;99.90
31133;DHT22;17779;50.942;4.026;2022-07-18T05:32:36;19.30;99.90
31133;DHT22;17779;50.942;4.026;2022-07-18T05:35:02;19.50;99.90
31133;DHT22;17779;50.942;4.026;2022-07-18T05:37:28;19.40;99.90
31133;DHT22;17779;50.942;4.026;2022-07-18T05:39:54;19.50;99.90
31133;DHT22;17779;50.942;4.026;2022-07-18T05:42:20;19.70;99.90
31133;DHT22;17779;50.942;4.026;2022-07-18T05:44:45;19.70;99.90
31133;DHT22;17779;50.942;4.026;2022-07-18T05:47:11;19.80;99.90
31133;DHT22;17779;50.942;4.026;2022-07-18T05:49:38;20.00;99.90
31133;DHT22;17779;50.942;4.026;2022-07-18T05:52:04;20.10;99.90
31133;DHT22;17779;50.942;4.026;2022-07-18T05:54:30;20.30;99.90
31133;DHT22;17779;50.942;4.026;2022-07-18T05:56:56;20.40;99.90
31133;DHT22;17779;50.942;4.026;2022-07-18T05:59:22;20.60;99.90
31133;DHT22;17779;50.942;4.026;2022-07-18T06:01:48;20.70;99.90
31133;DHT22;17779;50.942;4.026;2022-07-18T06:04:14;20.80;99.90
31133;DHT22;17779;50.942;4.026;2022-07-18T06:06:39;20.90;99.90
31133;DHT22;17779;50.942;4.026;2022-07-18T06:09:05;20.90;99.90
31133;DHT22;17779;50.942;4.026;2022-07-18T06:11:31;21.00;99.90
31133;DHT22;17779;50.942;4.026;2022-07-18T06:13:57;21.10;99.90
31133;DHT22;17779;50.942;4.026;2022-07-18T06:16:23;21.30;99.90
31133;DHT22;17779;50.942;4.026;2022-07-18T06:18:49;21.50;99.90
31133;DHT22;17779;50.942;4.026;2022-07-18T06:21:15;21.70;99.90
31133;DHT22;17779;50.942;4.026;2022-07-18T06:23:41;21.60;99.90
31133;DHT22;17779;50.942;4.026;2022-07-18T06:26:06;21.60;99.90
31133;DHT22;17779;50.942;4.026;2022-07-18T06:28:32;21.60;99.90
31133;DHT22;17779;50.942;4.026;2022-07-18T06:30:58;21.80;99.90
31133;DHT22;17779;50.942;4.026;2022-07-18T06:33:24;21.90;99.90
31133;DHT22;17779;50.942;4.026;2022-07-18T06:35:50;22.10;99.90
31133;DHT22;17779;50.942;4.026;2022-07-18T06:38:16;22.30;99.90
31133;DHT22;17779;50.942;4.026;2022-07-18T06:40:42;22.60;99.90
31133;DHT22;17779;50.942;4.026;2022-07-18T06:43:08;22.90;99.90
31133;DHT22;17779;50.942;4.026;2022-07-18T06:45:33;23.20;99.90
31133;DHT22;17779;50.942;4.026;2022-07-18T06:47:59;23.40;99.90
31133;DHT22;17779;50.942;4.026;2022-07-18T06:50:25;23.60;99.90
31133;DHT22;17779;50.942;4.026;2022-07-18T06:52:51;23.90;99.90
31133;DHT22;17779;50.942;4.026;2022-07-18T06:55:17;24.30;99.90
31133;DHT22;17779;50.942;4.026;2022-07-18T06:57:43;24.60;99.90
31133;DHT22;17779;50.942;4.026;2022-07-18T07:00:10;24.70;99.90
31133;DHT22;17779;50.942;4.026;2022-07-18T07:02:40;24.70;99.90
31133;DHT22;17779;50.942;4.026;2022-07-18T07:05:06;24.80;99.90
31133;DHT22;17779;50.942;4.026;2022-07-18T07:07:32;24.90;99.90
31133;DHT22;17779;50.942;4.026;2022-07-18T07:09:58;25.20;99.90
31133;DHT22;17779;50.942;4.026;2022-07-18T07:12:23;25.20;99.90
31133;DHT22;17779;50.942;4.026;2022-07-18T07:14:49;25.60;99.90
31133;DHT22;17779;50.942;4.026;2022-07-18T07:17:15;25.60;99.90
31133;DHT22;17779;50.942;4.026;2022-07-18T07:19:41;25.80;99.90
31133;DHT22;17779;50.942;4.026;2022-07-18T07:22:06;26.70;99.90
31133;DHT22;17779;50.942;4.026;2022-07-18T07:24:32;27.60;99.90
31133;DHT22;17779;50.942;4.026;2022-07-18T07:26:58;28.50;99.70
31133;DHT22;17779;50.942;4.026;2022-07-18T07:29:25;28.80;98.20
31133;DHT22;17779;50.942;4.026;2022-07-18T07:31:51;29.20;98.00
31133;DHT22;17779;50.942;4.026;2022-07-18T07:34:16;30.40;96.50
31133;DHT22;17779;50.942;4.026;2022-07-18T07:36:42;30.20;94.60
31133;DHT22;17779;50.942;4.026;2022-07-18T07:39:08;30.90;93.50
31133;DHT22;17779;50.942;4.026;2022-07-18T07:41:34;31.40;92.30
31133;DHT22;17779;50.942;4.026;2022-07-18T07:43:59;32.00;92.40
31133;DHT22;17779;50.942;4.026;2022-07-18T07:46:26;31.70;91.60
31133;DHT22;17779;50.942;4.026;2022-07-18T07:48:52;32.00;91.10
31133;DHT22;17779;50.942;4.026;2022-07-18T07:51:18;32.80;90.10
31133;DHT22;17779;50.942;4.026;2022-07-18T07:53:44;32.80;88.30
31133;DHT22;17779;50.942;4.026;2022-07-18T07:56:10;32.70;86.00
31133;DHT22;17779;50.942;4.026;2022-07-18T07:58:36;32.40;86.70
31133;DHT22;17779;50.942;4.026;2022-07-18T08:01:02;33.10;86.00
31133;DHT22;17779;50.942;4.026;2022-07-18T08:03:28;33.90;83.40
31133;DHT22;17779;50.942;4.026;2022-07-18T08:05:53;34.70;82.20
31133;DHT22;17779;50.942;4.026;2022-07-18T08:08:19;34.70;79.40
31133;DHT22;17779;50.942;4.026;2022-07-18T08:10:45;35.50;78.20
31133;DHT22;17779;50.942;4.026;2022-07-18T08:13:12;35.10;77.60
31133;DHT22;17779;50.942;4.026;2022-07-18T08:15:38;35.20;77.20
31133;DHT22;17779;50.942;4.026;2022-07-18T08:18:04;34.90;77.50
31133;DHT22;17779;50.942;4.026;2022-07-18T08:20:30;35.50;76.60
31133;DHT22;17779;50.942;4.026;2022-07-18T08:23:05;35.60;75.90
31133;DHT22;17779;50.942;4.026;2022-07-18T08:25:33;36.40;74.30
31133;DHT22;17779;50.942;4.026;2022-07-18T08:27:59;37.20;72.00
31133;DHT22;17779;50.942;4.026;2022-07-18T08:30:25;35.90;73.00
31133;DHT22;17779;50.942;4.026;2022-07-18T08:32:51;35.90;72.60
31133;DHT22;17779;50.942;4.026;2022-07-18T08:35:17;35.60;72.70
31133;DHT22;17779;50.942;4.026;2022-07-18T08:37:43;36.80;71.80
31133;DHT22;17779;50.942;4.026;2022-07-18T08:40:09;37.20;71.30
31133;DHT22;17779;50.942;4.026;2022-07-18T08:42:35;37.30;71.30
31133;DHT22;17779;50.942;4.026;2022-07-18T08:45:01;38.30;69.10
31133;DHT22;17779;50.942;4.026;2022-07-18T08:47:31;38.40;67.90
31133;DHT22;17779;50.942;4.026;2022-07-18T08:49:57;38.50;67.80
31133;DHT22;17779;50.942;4.026;2022-07-18T08:52:23;39.20;66.30
31133;DHT22;17779;50.942;4.026;2022-07-18T08:54:49;41.00;63.30
31133;DHT22;17779;50.942;4.026;2022-07-18T08:57:16;41.30;61.70
31133;DHT22;17779;50.942;4.026;2022-07-18T08:59:44;40.80;60.30
31133;DHT22;17779;50.942;4.026;2022-07-18T09:02:09;41.00;61.40
31133;DHT22;17779;50.942;4.026;2022-07-18T09:04:38;42.20;59.20
31133;DHT22;17779;50.942;4.026;2022-07-18T09:07:05;43.20;57.20
31133;DHT22;17779;50.942;4.026;2022-07-18T09:09:31;42.80;56.70
31133;DHT22;17779;50.942;4.026;2022-07-18T09:11:59;42.40;54.90
31133;DHT22;17779;50.942;4.026;2022-07-18T09:17:11;41.30;54.90
31133;DHT22;17779;50.942;4.026;2022-07-18T09:19:38;41.50;55.00
31133;DHT22;17779;50.942;4.026;2022-07-18T09:22:11;41.90;54.60
31133;DHT22;17779;50.942;4.026;2022-07-18T09:24:48;42.20;53.20
31133;DHT22;17779;50.942;4.026;2022-07-18T09:30:21;43.30;52.50
31133;DHT22;17779;50.942;4.026;2022-07-18T09:32:51;43.60;52.30
31133;DHT22;17779;50.942;4.026;2022-07-18T09:35:19;42.40;52.60
31133;DHT22;17779;50.942;4.026;2022-07-18T09:37:55;42.10;53.20
31133;DHT22;17779;50.942;4.026;2022-07-18T09:40:22;43.30;52.50
31133;DHT22;17779;50.942;4.026;2022-07-18T09:42:49;43.10;51.40
31133;DHT22;17779;50.942;4.026;2022-07-18T09:45:15;42.40;51.70
31133;DHT22;17779;50.942;4.026;2022-07-18T09:47:51;42.50;51.80
31133;DHT22;17779;50.942;4.026;2022-07-18T09:50:26;44.00;51.20
31133;DHT22;17779;50.942;4.026;2022-07-18T09:53:04;43.40;51.10
31133;DHT22;17779;50.942;4.026;2022-07-18T09:55:30;40.80;52.70
31133;DHT22;17779;50.942;4.026;2022-07-18T09:57:56;41.80;52.40
31133;DHT22;17779;50.942;4.026;2022-07-18T10:00:23;43.20;51.20
31133;DHT22;17779;50.942;4.026;2022-07-18T10:02:48;45.60;49.80
31133;DHT22;17779;50.942;4.026;2022-07-18T10:05:14;46.30;48.50
31133;DHT22;17779;50.942;4.026;2022-07-18T10:07:40;46.60;47.40
31133;DHT22;17779;50.942;4.026;2022-07-18T10:10:06;46.60;45.80
31133;DHT22;17779;50.942;4.026;2022-07-18T10:12:32;46.20;46.50
31133;DHT22;17779;50.942;4.026;2022-07-18T10:14:58;45.70;46.80
31133;DHT22;17779;50.942;4.026;2022-07-18T10:17:23;45.50;47.90
31133;DHT22;17779;50.942;4.026;2022-07-18T10:19:49;46.40;46.90
31133;DHT22;17779;50.942;4.026;2022-07-18T10:22:15;46.40;46.50
31133;DHT22;17779;50.942;4.026;2022-07-18T10:24:41;46.90;46.50
31133;DHT22;17779;50.942;4.026;2022-07-18T10:27:15;46.70;46.30
31133;DHT22;17779;50.942;4.026;2022-07-18T10:30:06;46.90;45.50
31133;DHT22;17779;50.942;4.026;2022-07-18T10:32:33;45.60;46.10
31133;DHT22;17779;50.942;4.026;2022-07-18T10:34:59;46.20;45.90
31133;DHT22;17779;50.942;4.026;2022-07-18T10:37:24;46.10;45.70
31133;DHT22;17779;50.942;4.026;2022-07-18T10:39:51;45.70;45.30
31133;DHT22;17779;50.942;4.026;2022-07-18T10:42:17;45.80;45.50
31133;DHT22;17779;50.942;4.026;2022-07-18T10:44:44;43.80;47.40
31133;DHT22;17779;50.942;4.026;2022-07-18T10:47:11;44.50;47.10
31133;DHT22;17779;50.942;4.026;2022-07-18T10:57:38;46.00;44.80
31133;DHT22;17779;50.942;4.026;2022-07-18T11:00:06;46.40;44.40
31133;DHT22;17779;50.942;4.026;2022-07-18T11:02:43;44.90;44.50
31133;DHT22;17779;50.942;4.026;2022-07-18T11:16:00;45.30;43.50
31133;DHT22;17779;50.942;4.026;2022-07-18T11:21:17;45.30;43.80
31133;DHT22;17779;50.942;4.026;2022-07-18T11:23:43;46.10;44.10
31133;DHT22;17779;50.942;4.026;2022-07-18T11:26:13;46.60;43.80
31133;DHT22;17779;50.942;4.026;2022-07-18T11:28:39;44.90;43.90
31133;DHT22;17779;50.942;4.026;2022-07-18T11:31:06;44.80;44.00
31133;DHT22;17779;50.942;4.026;2022-07-18T11:33:33;45.60;43.90
31133;DHT22;17779;50.942;4.026;2022-07-18T11:36:05;45.40;44.00
31133;DHT22;17779;50.942;4.026;2022-07-18T11:38:31;45.70;43.60
31133;DHT22;17779;50.942;4.026;2022-07-18T11:40:57;46.20;43.00
31133;DHT22;17779;50.942;4.026;2022-07-18T11:43:23;45.90;43.00
31133;DHT22;17779;50.942;4.026;2022-07-18T11:45:58;44.30;43.10
31133;DHT22;17779;50.942;4.026;2022-07-18T11:48:24;43.50;43.30
31133;DHT22;17779;50.942;4.026;2022-07-18T11:50:50;42.60;44.20
31133;DHT22;17779;50.942;4.026;2022-07-18T11:53:16;42.50;44.30
31133;DHT22;17779;50.942;4.026;2022-07-18T11:55:41;40.90;45.50
31133;DHT22;17779;50.942;4.026;2022-07-18T12:00:33;41.80;45.10
31133;DHT22;17779;50.942;4.026;2022-07-18T12:05:35;41.50;45.60
31133;DHT22;17779;50.942;4.026;2022-07-18T12:08:01;41.60;45.90
31133;DHT22;17779;50.942;4.026;2022-07-18T12:10:27;42.30;45.40
31133;DHT22;17779;50.942;4.026;2022-07-18T12:12:53;43.40;44.50
31133;DHT22;17779;50.942;4.026;2022-07-18T12:15:19;42.50;43.50
31133;DHT22;17779;50.942;4.026;2022-07-18T12:17:47;42.50;43.60
31133;DHT22;17779;50.942;4.026;2022-07-18T12:20:15;42.20;43.70
31133;DHT22;17779;50.942;4.026;2022-07-18T12:25:37;42.00;44.10
31133;DHT22;17779;50.942;4.026;2022-07-18T12:28:13;41.50;45.50
31133;DHT22;17779;50.942;4.026;2022-07-18T12:30:39;43.00;44.50
31133;DHT22;17779;50.942;4.026;2022-07-18T12:33:08;42.60;43.70
31133;DHT22;17779;50.942;4.026;2022-07-18T12:35:35;43.20;43.40
31133;DHT22;17779;50.942;4.026;2022-07-18T12:40:37;43.90;43.50
31133;DHT22;17779;50.942;4.026;2022-07-18T12:43:04;44.10;42.70
31133;DHT22;17779;50.942;4.026;2022-07-18T12:45:31;43.40;43.30
31133;DHT22;17779;50.942;4.026;2022-07-18T12:47:56;44.20;42.20
31133;DHT22;17779;50.942;4.026;2022-07-18T12:50:22;45.00;41.70
31133;DHT22;17779;50.942;4.026;2022-07-18T12:52:48;45.10;41.50
31133;DHT22;17779;50.942;4.026;2022-07-18T12:55:14;44.80;41.90
31133;DHT22;17779;50.942;4.026;2022-07-18T12:57:39;44.60;42.10
31133;DHT22;17779;50.942;4.026;2022-07-18T13:00:05;42.10;42.90
31133;DHT22;17779;50.942;4.026;2022-07-18T13:02:31;39.20;45.20
31133;DHT22;17779;50.942;4.026;2022-07-18T13:04:57;38.50;46.40
31133;DHT22;17779;50.942;4.026;2022-07-18T13:07:22;37.90;46.80
31133;DHT22;17779;50.942;4.026;2022-07-18T13:09:48;37.70;46.60
31133;DHT22;17779;50.942;4.026;2022-07-18T13:12:14;37.70;46.50
31133;DHT22;17779;50.942;4.026;2022-07-18T13:14:40;37.50;45.90
31133;DHT22;17779;50.942;4.026;2022-07-18T13:17:05;37.00;46.10
31133;DHT22;17779;50.942;4.026;2022-07-18T13:19:31;36.70;46.90
31133;DHT22;17779;50.942;4.026;2022-07-18T13:21:57;36.20;47.80
31133;DHT22;17779;50.942;4.026;2022-07-18T13:24:23;36.30;46.50
31133;DHT22;17779;50.942;4.026;2022-07-18T13:26:49;36.00;46.40
31133;DHT22;17779;50.942;4.026;2022-07-18T13:29:15;36.00;46.80
31133;DHT22;17779;50.942;4.026;2022-07-18T13:31:40;36.10;47.00
31133;DHT22;17779;50.942;4.026;2022-07-18T13:34:06;36.00;46.80
31133;DHT22;17779;50.942;4.026;2022-07-18T13:36:32;36.00;47.10
31133;DHT22;17779;50.942;4.026;2022-07-18T13:38:58;36.10;47.00
31133;DHT22;17779;50.942;4.026;2022-07-18T13:41:24;36.00;47.10
31133;DHT22;17779;50.942;4.026;2022-07-18T13:43:50;36.10;47.70
31133;DHT22;17779;50.942;4.026;2022-07-18T13:46:15;36.30;47.00
31133;DHT22;17779;50.942;4.026;2022-07-18T13:48:44;36.30;46.80
31133;DHT22;17779;50.942;4.026;2022-07-18T13:51:11;35.90;47.20
31133;DHT22;17779;50.942;4.026;2022-07-18T13:53:37;35.90;47.40
31133;DHT22;17779;50.942;4.026;2022-07-18T13:56:02;35.70;47.60
31133;DHT22;17779;50.942;4.026;2022-07-18T13:58:28;35.70;47.20
31133;DHT22;17779;50.942;4.026;2022-07-18T14:00:54;35.80;47.30
31133;DHT22;17779;50.942;4.026;2022-07-18T14:03:20;35.80;47.70
31133;DHT22;17779;50.942;4.026;2022-07-18T14:05:45;35.30;48.90
31133;DHT22;17779;50.942;4.026;2022-07-18T14:08:11;35.50;48.80
31133;DHT22;17779;50.942;4.026;2022-07-18T14:10:37;35.40;48.50
31133;DHT22;17779;50.942;4.026;2022-07-18T14:13:03;35.20;48.40
31133;DHT22;17779;50.942;4.026;2022-07-18T14:15:28;35.10;49.30
31133;DHT22;17779;50.942;4.026;2022-07-18T14:17:55;35.50;49.00
31133;DHT22;17779;50.942;4.026;2022-07-18T14:20:21;35.50;48.90
31133;DHT22;17779;50.942;4.026;2022-07-18T14:22:47;35.50;48.70
31133;DHT22;17779;50.942;4.026;2022-07-18T14:25:15;35.60;48.70
31133;DHT22;17779;50.942;4.026;2022-07-18T14:27:42;35.50;48.70
31133;DHT22;17779;50.942;4.026;2022-07-18T14:30:09;35.30;49.30
31133;DHT22;17779;50.942;4.026;2022-07-18T14:32:36;35.60;49.30
31133;DHT22;17779;50.942;4.026;2022-07-18T14:35:02;35.60;49.20
31133;DHT22;17779;50.942;4.026;2022-07-18T14:37:27;35.80;49.10
31133;DHT22;17779;50.942;4.026;2022-07-18T14:39:53;35.70;48.90
31133;DHT22;17779;50.942;4.026;2022-07-18T14:42:19;35.30;48.80
31133;DHT22;17779;50.942;4.026;2022-07-18T14:44:44;35.20;49.00
31133;DHT22;17779;50.942;4.026;2022-07-18T14:47:10;35.30;49.50
31133;DHT22;17779;50.942;4.026;2022-07-18T14:49:36;35.30;49.20
31133;DHT22;17779;50.942;4.026;2022-07-18T14:52:02;35.20;48.80
31133;DHT22;17779;50.942;4.026;2022-07-18T14:54:28;35.30;49.40
31133;DHT22;17779;50.942;4.026;2022-07-18T14:56:53;35.10;49.50
31133;DHT22;17779;50.942;4.026;2022-07-18T14:59:20;35.30;49.20
31133;DHT22;17779;50.942;4.026;2022-07-18T15:01:46;35.10;49.80
31133;DHT22;17779;50.942;4.026;2022-07-18T15:04:12;35.10;49.30
31133;DHT22;17779;50.942;4.026;2022-07-18T15:06:38;35.20;49.90
31133;DHT22;17779;50.942;4.026;2022-07-18T15:09:05;35.00;49.70
31133;DHT22;17779;50.942;4.026;2022-07-18T15:11:32;35.00;49.30
31133;DHT22;17779;50.942;4.026;2022-07-18T15:13:57;34.90;49.30
31133;DHT22;17779;50.942;4.026;2022-07-18T15:16:23;34.90;49.90
31133;DHT22;17779;50.942;4.026;2022-07-18T15:18:49;34.80;49.80
31133;DHT22;17779;50.942;4.026;2022-07-18T15:21:15;34.70;50.00
31133;DHT22;17779;50.942;4.026;2022-07-18T15:23:41;34.80;50.00
31133;DHT22;17779;50.942;4.026;2022-07-18T15:26:06;35.00;50.20
31133;DHT22;17779;50.942;4.026;2022-07-18T15:28:32;35.00;49.80
31133;DHT22;17779;50.942;4.026;2022-07-18T15:30:58;34.80;49.90
31133;DHT22;17779;50.942;4.026;2022-07-18T15:33:24;34.60;50.00
31133;DHT22;17779;50.942;4.026;2022-07-18T15:35:50;34.70;50.10
31133;DHT22;17779;50.942;4.026;2022-07-18T15:38:16;34.80;50.00
31133;DHT22;17779;50.942;4.026;2022-07-18T15:40:42;34.90;50.30
31133;DHT22;17779;50.942;4.026;2022-07-18T15:43:09;34.90;50.90
31133;DHT22;17779;50.942;4.026;2022-07-18T15:45:35;35.00;50.90
31133;DHT22;17779;50.942;4.026;2022-07-18T15:48:00;34.90;50.90
31133;DHT22;17779;50.942;4.026;2022-07-18T15:50:26;34.80;50.30
31133;DHT22;17779;50.942;4.026;2022-07-18T15:52:52;35.00;50.40
31133;DHT22;17779;50.942;4.026;2022-07-18T15:55:17;34.90;50.70
31133;DHT22;17779;50.942;4.026;2022-07-18T15:57:43;34.90;50.60
31133;DHT22;17779;50.942;4.026;2022-07-18T16:00:09;35.00;50.70
31133;DHT22;17779;50.942;4.026;2022-07-18T16:02:35;34.90;49.90